sim
Sign-in with your pilot id or email,
or register
Callsign
Passwort

Schedule Details

Flight Number: DLH2183 (1)
Departure: Paderborn Lippstadt Airport (EDLP) at 05:05
Arrival: Munich Airport (EDDM) at 06:05
Route: Lufthansa Passenger Schedule. Enter filed route here before submitting Pirep.

Weather Information
Getting current METAR information for EDLP 242020Z 14007KT CAVOK 16/07 Q1000
Getting current METAR information for EDDM 242120Z 16004KT 130V190 9999 -RA SCT040 16/14 Q1003 BECMG 25010KT

Schedule Frequency

Route Map